Time;durP1;ratioP1;P1;durP2;ratioP2;P2;SDS_P1;SDS_P2;PMS_P1;PMS_P2;Temp;Humidity;BMP_temperature;BMP_pressure;BME280_temperature;BME280_humidity;BME280_pressure;Samples;Min_cycle;Max_cycle;Signal;HPM_P1;HPM_P2
2022/09/17 00:01:37;;;;;;;1.20;0.90;;;;;;;;;;5107819;28;20282;-86
2022/09/17 00:04:04;;;;;;;0.83;0.83;;;;;;;;;;5111974;28;20203;-86
2022/09/17 00:06:33;;;;;;;2.10;1.20;;;;;;;;;;5111806;28;20204;-85
2022/09/17 00:08:59;;;;;;;0.90;0.90;;;;;;;;;;5111759;28;20260;-86
2022/09/17 00:11:28;;;;;;;0.93;0.90;;;;;;;;;;5111660;28;20260;-85
2022/09/17 00:13:58;;;;;;;0.70;0.70;;;;;;;;;;5111597;28;20682;-85
2022/09/17 00:16:27;;;;;;;1.07;0.87;;;;;;;;;;5111436;28;20242;-85
2022/09/17 00:18:54;;;;;;;1.50;1.33;;;;;;;;;;5111278;28;20212;-85
2022/09/17 00:21:21;;;;;;;0.70;0.70;;;;;;;;;;5111082;28;20207;-85
2022/09/17 00:23:48;;;;;;;1.00;1.00;;;;;;;;;;5111622;28;20199;-85
2022/09/17 00:26:15;;;;;;;1.53;0.90;;;;;;;;;;5111140;28;20242;-84
2022/09/17 00:28:44;;;;;;;1.20;1.00;;;;;;;;;;5111407;28;20234;-85
2022/09/17 00:31:12;;;;;;;0.80;0.80;;;;;;;;;;5111959;28;20639;-86
2022/09/17 00:33:39;;;;;;;1.40;1.00;;;;;;;;;;5111159;28;20204;-84
2022/09/17 00:36:06;;;;;;;0.90;0.90;;;;;;;;;;5111275;28;20662;-86
2022/09/17 00:38:33;;;;;;;1.30;1.30;;;;;;;;;;5111428;28;20210;-86
2022/09/17 00:41:00;;;;;;;2.27;0.97;;;;;;;;;;5111281;28;20203;-86
2022/09/17 00:43:40;;;;;;;0.70;0.70;;;;;;;;;;5111524;28;20218;-86
2022/09/17 00:46:16;;;;;;;1.83;0.90;;;;;;;;;;5110832;28;20219;-85
2022/09/17 00:48:44;;;;;;;2.03;0.90;;;;;;;;;;5111475;28;20203;-86
2022/09/17 00:51:11;;;;;;;0.90;0.90;;;;;;;;;;5111405;28;20231;-86
2022/09/17 00:53:39;;;;;;;0.50;0.50;;;;;;;;;;5111266;28;20770;-86
2022/09/17 00:56:11;;;;;;;0.57;0.57;;;;;;;;;;5111300;28;20207;-86
2022/09/17 00:58:38;;;;;;;0.90;0.80;;;;;;;;;;5104928;28;20218;-86
2022/09/17 01:01:05;;;;;;;1.63;0.93;;;;;;;;;;5103130;28;20215;-85
2022/09/17 01:03:34;;;;;;;1.00;1.00;;;;;;;;;;5111495;28;20283;-86
2022/09/17 01:06:08;;;;;;;0.90;0.90;;;;;;;;;;5110871;28;20238;-86
2022/09/17 01:08:44;;;;;;;1.30;1.03;;;;;;;;;;5111185;28;20202;-86
2022/09/17 01:11:27;;;;;;;0.70;0.70;;;;;;;;;;5110715;28;20206;-85
2022/09/17 01:14:04;;;;;;;1.67;1.33;;;;;;;;;;5110931;28;20195;-86
2022/09/17 01:16:36;;;;;;;1.23;1.13;;;;;;;;;;5110617;28;20705;-85
2022/09/17 01:19:21;;;;;;;1.10;1.00;;;;;;;;;;5097184;28;20199;-86
2022/09/17 01:22:01;;;;;;;1.00;1.00;;;;;;;;;;5110554;28;20199;-85
2022/09/17 01:24:57;;;;;;;2.27;1.37;;;;;;;;;;5115348;28;20203;-85
2022/09/17 01:28:00;;;;;;;2.03;1.87;;;;;;;;;;5115006;28;20204;-86
2022/09/17 01:30:57;;;;;;;0.97;0.93;;;;;;;;;;5082821;28;20204;-85
2022/09/17 01:33:29;;;;;;;1.37;1.30;;;;;;;;;;5109318;28;20208;-86
2022/09/17 01:36:06;;;;;;;0.63;0.63;;;;;;;;;;5114680;28;20198;-87
2022/09/17 01:38:37;;;;;;;0.97;0.97;;;;;;;;;;5114973;28;20286;-85
2022/09/17 01:41:07;;;;;;;1.37;1.10;;;;;;;;;;5114687;28;20202;-85
2022/09/17 01:43:38;;;;;;;1.13;1.07;;;;;;;;;;5115075;28;20234;-85
2022/09/17 01:46:11;;;;;;;1.77;1.67;;;;;;;;;;5114556;28;20223;-85
2022/09/17 01:48:41;;;;;;;0.90;0.90;;;;;;;;;;5114615;28;20228;-85
2022/09/17 01:51:10;;;;;;;2.10;1.57;;;;;;;;;;5114980;28;20576;-86
2022/09/17 01:53:42;;;;;;;1.40;0.90;;;;;;;;;;5114801;28;20211;-86
2022/09/17 01:56:10;;;;;;;0.90;0.90;;;;;;;;;;5114518;28;20685;-85
2022/09/17 01:58:39;;;;;;;1.00;1.00;;;;;;;;;;5114052;28;20199;-85
2022/09/17 02:01:09;;;;;;;1.40;1.30;;;;;;;;;;5114557;28;20662;-86
2022/09/17 02:03:39;;;;;;;1.23;1.13;;;;;;;;;;5114124;28;20196;-86
2022/09/17 02:06:10;;;;;;;1.20;1.10;;;;;;;;;;5114651;27;20231;-86
2022/09/17 02:08:42;;;;;;;2.03;1.83;;;;;;;;;;5107899;28;20195;-86
2022/09/17 02:11:13;;;;;;;4.10;1.47;;;;;;;;;;5113089;28;20207;-86
2022/09/17 02:13:43;;;;;;;1.13;1.03;;;;;;;;;;5107650;28;20225;-86
2022/09/17 02:16:13;;;;;;;1.17;1.10;;;;;;;;;;5110678;27;20723;-86
2022/09/17 02:18:45;;;;;;;0.73;0.73;;;;;;;;;;5109040;28;20200;-86
2022/09/17 02:21:15;;;;;;;1.80;1.50;;;;;;;;;;5113905;28;20203;-86
2022/09/17 02:23:47;;;;;;;3.10;1.60;;;;;;;;;;5114080;28;20212;-86
2022/09/17 02:26:18;;;;;;;1.00;1.00;;;;;;;;;;5114137;28;20281;-86
2022/09/17 02:28:47;;;;;;;2.13;1.40;;;;;;;;;;5113954;28;20207;-86
2022/09/17 02:31:16;;;;;;;1.33;1.23;;;;;;;;;;5114030;28;20204;-86
2022/09/17 02:33:47;;;;;;;2.87;1.20;;;;;;;;;;5113721;28;20203;-86
2022/09/17 02:36:14;;;;;;;2.00;1.40;;;;;;;;;;5113839;28;21047;-86
2022/09/17 02:38:42;;;;;;;1.50;1.40;;;;;;;;;;5112475;28;20195;-86
2022/09/17 02:41:15;;;;;;;1.10;1.10;;;;;;;;;;5113256;28;20196;-85
2022/09/17 02:43:47;;;;;;;1.50;1.40;;;;;;;;;;5114097;28;20203;-86
2022/09/17 02:46:30;;;;;;;1.13;1.03;;;;;;;;;;5113568;28;20220;-86
2022/09/17 02:49:15;;;;;;;0.83;0.77;;;;;;;;;;5113673;28;20204;-85
2022/09/17 02:51:45;;;;;;;1.60;1.50;;;;;;;;;;5107990;28;20191;-86
2022/09/17 02:54:18;;;;;;;1.37;1.27;;;;;;;;;;5110913;28;20583;-84
2022/09/17 02:56:50;;;;;;;1.30;1.20;;;;;;;;;;5112836;28;20210;-84
2022/09/17 02:59:22;;;;;;;1.30;1.27;;;;;;;;;;5101313;28;20663;-85
2022/09/17 03:01:55;;;;;;;2.47;1.43;;;;;;;;;;5110747;28;20200;-83
2022/09/17 03:04:23;;;;;;;1.17;1.10;;;;;;;;;;5113220;28;20203;-84
2022/09/17 03:06:52;;;;;;;1.17;1.13;;;;;;;;;;5112388;28;20219;-83
2022/09/17 03:09:19;;;;;;;2.57;1.80;;;;;;;;;;5112515;28;20203;-84
2022/09/17 03:11:45;;;;;;;2.03;1.40;;;;;;;;;;5112442;27;20214;-87
2022/09/17 03:14:12;;;;;;;1.17;1.07;;;;;;;;;;5110613;28;20203;-84
2022/09/17 03:16:39;;;;;;;1.50;1.40;;;;;;;;;;5111943;28;20227;-85
2022/09/17 03:19:07;;;;;;;1.63;1.37;;;;;;;;;;5112728;27;20211;-85
2022/09/17 03:21:34;;;;;;;2.63;1.10;;;;;;;;;;5112415;28;20206;-86
2022/09/17 03:24:01;;;;;;;1.03;1.03;;;;;;;;;;5112741;28;20244;-85
2022/09/17 03:26:27;;;;;;;2.77;1.73;;;;;;;;;;5111968;28;20223;-85
2022/09/17 03:28:54;;;;;;;1.50;1.40;;;;;;;;;;5112128;28;20202;-85
2022/09/17 03:31:21;;;;;;;1.53;0.90;;;;;;;;;;5112251;28;20204;-84
2022/09/17 03:33:49;;;;;;;2.97;1.17;;;;;;;;;;5112367;28;20196;-85
2022/09/17 03:36:17;;;;;;;1.03;1.00;;;;;;;;;;5112298;28;20276;-85
2022/09/17 03:38:44;;;;;;;1.63;1.20;;;;;;;;;;5112077;28;20199;-86
2022/09/17 03:41:10;;;;;;;1.60;1.50;;;;;;;;;;5111764;28;20570;-85
2022/09/17 03:43:38;;;;;;;1.60;1.50;;;;;;;;;;5111079;28;20201;-85
2022/09/17 03:46:05;;;;;;;1.10;1.10;;;;;;;;;;5111552;28;20739;-85
2022/09/17 03:48:35;;;;;;;0.83;0.83;;;;;;;;;;5112409;28;20207;-87
2022/09/17 03:51:02;;;;;;;1.10;1.10;;;;;;;;;;5112233;28;20200;-87
2022/09/17 03:53:31;;;;;;;2.00;1.03;;;;;;;;;;5112345;28;20207;-86
2022/09/17 03:55:59;;;;;;;1.00;1.00;;;;;;;;;;5111630;28;20200;-86
2022/09/17 03:58:26;;;;;;;1.07;1.00;;;;;;;;;;5107434;28;20264;-86
2022/09/17 04:00:54;;;;;;;1.53;1.10;;;;;;;;;;5102295;28;20200;-86
2022/09/17 04:03:21;;;;;;;3.27;1.67;;;;;;;;;;5107157;28;20203;-85
2022/09/17 04:05:48;;;;;;;2.23;1.20;;;;;;;;;;5107102;28;20219;-86
2022/09/17 04:08:15;;;;;;;1.33;1.27;;;;;;;;;;5106286;28;20210;-86
2022/09/17 04:10:43;;;;;;;1.57;1.47;;;;;;;;;;5111609;28;20600;-86
2022/09/17 04:13:10;;;;;;;1.20;1.13;;;;;;;;;;5106466;28;20200;-86
2022/09/17 04:15:37;;;;;;;1.23;1.20;;;;;;;;;;5090897;28;20567;-84
2022/09/17 04:18:03;;;;;;;1.30;1.30;;;;;;;;;;5090689;28;20581;-85
2022/09/17 04:20:31;;;;;;;1.73;1.00;;;;;;;;;;5091052;28;20200;-85
2022/09/17 04:22:57;;;;;;;1.70;1.57;;;;;;;;;;5090065;28;20223;-84
2022/09/17 04:25:24;;;;;;;1.70;1.60;;;;;;;;;;5089654;28;20200;-84
2022/09/17 04:27:52;;;;;;;2.20;1.20;;;;;;;;;;5089980;28;20606;-84
2022/09/17 04:30:19;;;;;;;2.50;1.50;;;;;;;;;;5089887;28;20199;-84
2022/09/17 04:32:46;;;;;;;1.30;1.13;;;;;;;;;;5107987;28;20220;-84
2022/09/17 04:35:13;;;;;;;1.07;1.07;;;;;;;;;;5110370;28;20646;-84
2022/09/17 04:37:40;;;;;;;2.53;1.37;;;;;;;;;;5107729;27;20191;-84
2022/09/17 04:40:08;;;;;;;1.10;1.00;;;;;;;;;;5110729;28;20260;-86
2022/09/17 04:42:35;;;;;;;3.60;1.63;;;;;;;;;;5110701;28;20191;-84
2022/09/17 04:45:03;;;;;;;1.63;1.53;;;;;;;;;;5111191;28;20202;-82
2022/09/17 04:47:30;;;;;;;0.83;0.83;;;;;;;;;;5110467;28;20235;-84
2022/09/17 04:49:57;;;;;;;3.27;1.40;;;;;;;;;;5111251;28;20203;-84
2022/09/17 04:52:23;;;;;;;1.43;1.33;;;;;;;;;;5110607;28;20200;-84
2022/09/17 04:54:50;;;;;;;1.60;1.30;;;;;;;;;;5110795;28;20199;-84
2022/09/17 04:57:17;;;;;;;1.73;1.30;;;;;;;;;;5111015;28;20222;-86
2022/09/17 04:59:44;;;;;;;4.73;1.73;;;;;;;;;;5096432;28;20196;-85
2022/09/17 05:02:12;;;;;;;1.40;1.30;;;;;;;;;;5110775;28;20195;-85
2022/09/17 05:04:39;;;;;;;1.40;1.30;;;;;;;;;;5110671;28;20199;-84
2022/09/17 05:07:05;;;;;;;1.37;1.27;;;;;;;;;;5109921;28;20219;-84
2022/09/17 05:09:32;;;;;;;1.83;1.43;;;;;;;;;;5110927;28;20196;-84
2022/09/17 05:11:59;;;;;;;2.20;1.00;;;;;;;;;;5110250;28;20203;-84
2022/09/17 05:14:26;;;;;;;2.10;1.20;;;;;;;;;;5110693;28;20583;-84
2022/09/17 05:16:52;;;;;;;2.47;1.47;;;;;;;;;;5110418;28;20231;-84
2022/09/17 05:19:21;;;;;;;1.80;1.37;;;;;;;;;;5110550;28;20210;-84
2022/09/17 05:21:47;;;;;;;1.53;1.43;;;;;;;;;;5110437;28;20199;-84
2022/09/17 05:24:14;;;;;;;1.30;1.27;;;;;;;;;;5110971;28;20203;-85
2022/09/17 05:26:41;;;;;;;1.87;1.40;;;;;;;;;;5110638;28;20227;-85
2022/09/17 05:29:08;;;;;;;1.40;1.27;;;;;;;;;;5110620;28;20595;-86
2022/09/17 05:31:34;;;;;;;1.90;1.77;;;;;;;;;;5110464;28;20202;-84
2022/09/17 05:34:01;;;;;;;1.97;1.43;;;;;;;;;;5109762;28;20199;-85
2022/09/17 05:36:29;;;;;;;2.10;1.50;;;;;;;;;;5110478;28;20203;-83
2022/09/17 05:38:57;;;;;;;1.67;1.50;;;;;;;;;;5110910;28;20199;-84
2022/09/17 05:41:23;;;;;;;2.20;1.80;;;;;;;;;;5110771;28;20203;-84
2022/09/17 05:43:50;;;;;;;1.40;1.30;;;;;;;;;;5103567;28;20205;-83
2022/09/17 05:46:17;;;;;;;1.30;1.10;;;;;;;;;;5110586;28;20317;-84
2022/09/17 05:48:44;;;;;;;2.73;1.50;;;;;;;;;;5103441;28;20203;-85
2022/09/17 05:51:10;;;;;;;1.00;1.00;;;;;;;;;;5095251;28;20199;-85
2022/09/17 05:53:38;;;;;;;1.33;1.23;;;;;;;;;;5110564;28;20203;-85
2022/09/17 05:56:05;;;;;;;2.63;1.07;;;;;;;;;;5110097;28;20206;-85
2022/09/17 05:58:33;;;;;;;1.30;1.20;;;;;;;;;;5109072;28;20726;-86
2022/09/17 06:01:01;;;;;;;1.70;1.27;;;;;;;;;;5110351;28;20195;-84
2022/09/17 06:03:27;;;;;;;1.10;1.00;;;;;;;;;;5109946;28;20208;-86
2022/09/17 06:05:57;;;;;;;1.70;1.60;;;;;;;;;;5110461;28;20252;-84
2022/09/17 06:08:24;;;;;;;2.43;1.70;;;;;;;;;;5110837;28;20211;-86
2022/09/17 06:10:52;;;;;;;1.10;1.10;;;;;;;;;;5114332;28;20210;-85
2022/09/17 06:13:20;;;;;;;1.13;1.03;;;;;;;;;;5113708;27;20206;-86
2022/09/17 06:15:50;;;;;;;3.10;1.60;;;;;;;;;;5113968;28;20218;-83
2022/09/17 06:18:17;;;;;;;6.40;2.00;;;;;;;;;;5113716;28;20230;-84
2022/09/17 06:20:44;;;;;;;2.07;1.13;;;;;;;;;;5112343;28;20208;-89
2022/09/17 06:23:11;;;;;;;2.10;1.27;;;;;;;;;;5105972;28;20203;-82
2022/09/17 06:25:38;;;;;;;1.17;1.00;;;;;;;;;;5113989;28;20195;-83
2022/09/17 06:28:06;;;;;;;1.40;1.40;;;;;;;;;;5113308;28;20230;-86
2022/09/17 06:30:32;;;;;;;1.60;1.30;;;;;;;;;;5113771;28;20215;-83
2022/09/17 06:33:01;;;;;;;2.40;1.40;;;;;;;;;;5113378;28;20199;-79
2022/09/17 06:35:28;;;;;;;1.90;1.53;;;;;;;;;;5098961;28;20204;-79
2022/09/17 06:37:54;;;;;;;2.13;2.00;;;;;;;;;;5113296;28;20261;-79
2022/09/17 06:40:22;;;;;;;1.37;1.27;;;;;;;;;;5113167;28;20214;-79
2022/09/17 06:42:48;;;;;;;1.60;1.60;;;;;;;;;;5113223;28;20196;-78
2022/09/17 06:45:17;;;;;;;2.53;1.37;;;;;;;;;;5113813;28;20207;-79
2022/09/17 06:47:44;;;;;;;1.93;1.83;;;;;;;;;;5112817;27;20752;-79
2022/09/17 06:50:11;;;;;;;1.83;1.53;;;;;;;;;;5113271;28;20195;-79
2022/09/17 06:52:38;;;;;;;1.57;1.47;;;;;;;;;;5103109;28;20197;-78
2022/09/17 06:55:06;;;;;;;2.00;1.63;;;;;;;;;;5112826;28;20195;-81
2022/09/17 06:57:32;;;;;;;1.67;1.57;;;;;;;;;;5112808;28;20575;-79
2022/09/17 06:59:59;;;;;;;2.23;1.97;;;;;;;;;;5112804;28;20192;-79
2022/09/17 07:02:27;;;;;;;2.33;2.13;;;;;;;;;;5112832;28;20688;-79
2022/09/17 07:04:54;;;;;;;2.03;1.90;;;;;;;;;;5113032;28;20206;-79
2022/09/17 07:07:21;;;;;;;1.63;1.53;;;;;;;;;;5112775;28;20255;-79
2022/09/17 07:09:48;;;;;;;3.57;1.60;;;;;;;;;;5112417;28;20210;-81
2022/09/17 07:12:17;;;;;;;1.50;1.40;;;;;;;;;;5112844;28;20284;-79
2022/09/17 07:14:44;;;;;;;2.73;1.93;;;;;;;;;;5112570;28;20196;-79
2022/09/17 07:17:11;;;;;;;1.57;1.40;;;;;;;;;;5106190;28;20624;-79
2022/09/17 07:19:40;;;;;;;1.67;1.57;;;;;;;;;;5111559;28;20200;-79
2022/09/17 07:22:07;;;;;;;2.20;2.00;;;;;;;;;;5112284;28;20195;-79
2022/09/17 07:24:34;;;;;;;2.20;2.00;;;;;;;;;;5112612;28;20209;-79
2022/09/17 07:27:01;;;;;;;1.63;1.53;;;;;;;;;;5112493;28;20230;-79
2022/09/17 07:29:27;;;;;;;1.77;1.67;;;;;;;;;;5112289;28;20199;-79
2022/09/17 07:31:54;;;;;;;2.30;2.10;;;;;;;;;;5112743;28;20207;-79
2022/09/17 07:34:21;;;;;;;2.07;1.80;;;;;;;;;;5112555;28;20291;-79
2022/09/17 07:36:49;;;;;;;1.97;1.87;;;;;;;;;;5112225;28;20696;-80
2022/09/17 07:39:16;;;;;;;2.20;2.10;;;;;;;;;;5112160;28;20200;-79
2022/09/17 07:41:43;;;;;;;2.50;2.30;;;;;;;;;;5112329;28;20222;-79
2022/09/17 07:44:11;;;;;;;1.90;1.80;;;;;;;;;;5112180;28;20204;-79
2022/09/17 07:46:38;;;;;;;2.73;2.20;;;;;;;;;;5112242;28;20246;-79
2022/09/17 07:49:04;;;;;;;1.70;1.60;;;;;;;;;;5111236;28;20750;-79
2022/09/17 07:51:31;;;;;;;2.00;1.87;;;;;;;;;;5105994;28;20651;-80
2022/09/17 07:54:01;;;;;;;4.63;1.90;;;;;;;;;;5112021;28;20206;-79
2022/09/17 07:56:28;;;;;;;2.00;1.63;;;;;;;;;;5112117;28;20204;-79
2022/09/17 07:58:55;;;;;;;2.07;1.97;;;;;;;;;;5103278;28;20208;-79
2022/09/17 08:01:21;;;;;;;2.03;1.90;;;;;;;;;;5106117;28;20210;-81
2022/09/17 08:03:49;;;;;;;1.83;1.73;;;;;;;;;;5102886;27;20197;-81
2022/09/17 08:06:18;;;;;;;2.47;1.80;;;;;;;;;;5093223;28;20204;-83
2022/09/17 08:08:45;;;;;;;2.23;2.07;;;;;;;;;;5092371;28;20320;-83
2022/09/17 08:11:15;;;;;;;1.77;1.40;;;;;;;;;;5111194;28;20215;-83
2022/09/17 08:13:42;;;;;;;1.80;1.70;;;;;;;;;;5107876;28;20694;-82
2022/09/17 08:16:11;;;;;;;2.27;2.13;;;;;;;;;;5103516;28;20203;-82
2022/09/17 08:18:39;;;;;;;2.27;2.00;;;;;;;;;;5110298;28;20208;-82
2022/09/17 08:21:07;;;;;;;1.90;1.63;;;;;;;;;;5111561;28;20272;-81
2022/09/17 08:23:37;;;;;;;2.10;1.90;;;;;;;;;;5100382;28;20208;-82
2022/09/17 08:26:07;;;;;;;2.85;1.85;;;;;;;;;;5104358;28;20203;-82
2022/09/17 08:28:35;;;;;;;1.67;1.58;;;;;;;;;;5100618;28;20219;-81
2022/09/17 08:31:04;;;;;;;1.40;1.40;;;;;;;;;;5107583;28;20210;-81
2022/09/17 08:33:32;;;;;;;2.08;1.70;;;;;;;;;;5106383;28;20207;-80
2022/09/17 08:35:59;;;;;;;1.70;1.60;;;;;;;;;;5109756;28;20226;-80
2022/09/17 08:38:26;;;;;;;2.03;1.80;;;;;;;;;;5111008;28;20696;-80
2022/09/17 08:40:59;;;;;;;1.65;1.55;;;;;;;;;;5110779;28;20206;-81
2022/09/17 08:43:27;;;;;;;2.00;1.90;;;;;;;;;;5111287;28;20210;-80
2022/09/17 08:45:56;;;;;;;1.65;1.55;;;;;;;;;;5110846;28;20200;-80
2022/09/17 08:48:23;;;;;;;1.90;1.80;;;;;;;;;;5103936;28;20223;-80
2022/09/17 08:50:50;;;;;;;1.67;1.58;;;;;;;;;;5102504;28;20196;-80
2022/09/17 08:53:33;;;;;;;4.85;2.15;;;;;;;;;;5103027;28;20689;-80
2022/09/17 08:56:02;;;;;;;1.85;1.50;;;;;;;;;;5106443;28;20191;-80
2022/09/17 08:58:42;;;;;;;2.08;1.63;;;;;;;;;;5103366;28;20618;-80
2022/09/17 09:01:19;;;;;;;4.53;1.75;;;;;;;;;;5099772;28;20207;-81
2022/09/17 09:04:07;;;;;;;2.55;1.50;;;;;;;;;;5098250;28;20203;-80
2022/09/17 09:06:36;;;;;;;2.00;1.80;;;;;;;;;;5094594;28;20215;-80
2022/09/17 09:09:05;;;;;;;1.67;1.50;;;;;;;;;;5110231;28;20613;-81
2022/09/17 09:11:32;;;;;;;2.03;1.92;;;;;;;;;;5111134;28;20200;-80
2022/09/17 09:14:05;;;;;;;2.92;2.38;;;;;;;;;;5110107;28;20225;-79
2022/09/17 09:16:34;;;;;;;2.13;1.83;;;;;;;;;;5106647;28;20314;-80
2022/09/17 09:19:11;;;;;;;1.83;1.67;;;;;;;;;;5106569;28;20613;-80
2022/09/17 09:21:41;;;;;;;1.50;1.40;;;;;;;;;;5097702;28;20200;-80
2022/09/17 09:24:14;;;;;;;1.90;1.65;;;;;;;;;;5101543;28;20204;-80
2022/09/17 09:26:44;;;;;;;2.15;2.05;;;;;;;;;;5108327;28;20214;-80
2022/09/17 09:29:18;;;;;;;1.92;1.83;;;;;;;;;;5103569;28;20292;-80
2022/09/17 09:32:00;;;;;;;1.73;1.63;;;;;;;;;;5107016;28;20199;-82
2022/09/17 09:34:27;;;;;;;1.58;1.48;;;;;;;;;;5104178;28;20200;-80
2022/09/17 09:36:59;;;;;;;1.55;1.45;;;;;;;;;;5102244;28;20281;-80
2022/09/17 09:39:34;;;;;;;1.63;1.52;;;;;;;;;;5097753;28;20208;-79
2022/09/17 09:42:05;;;;;;;1.00;1.00;;;;;;;;;;5109455;28;20727;-80
2022/09/17 09:44:32;;;;;;;2.00;1.80;;;;;;;;;;5105821;28;20219;-79
2022/09/17 09:47:18;;;;;;;1.10;1.10;;;;;;;;;;5109468;28;20688;-80
2022/09/17 09:50:08;;;;;;;1.10;1.10;;;;;;;;;;5099703;28;20264;-79
2022/09/17 09:52:48;;;;;;;1.25;1.17;;;;;;;;;;5103801;28;20196;-82
2022/09/17 09:55:40;;;;;;;2.22;1.45;;;;;;;;;;5112320;28;20322;-81
2022/09/17 09:58:24;;;;;;;1.80;1.70;;;;;;;;;;5107617;27;20208;-80
2022/09/17 10:00:51;;;;;;;2.35;2.15;;;;;;;;;;5107033;28;20575;-80
2022/09/17 10:03:21;;;;;;;2.45;1.65;;;;;;;;;;5111228;27;20222;-80
2022/09/17 10:05:57;;;;;;;1.60;1.50;;;;;;;;;;5113177;28;20200;-80
2022/09/17 10:08:24;;;;;;;2.05;1.55;;;;;;;;;;5112705;28;20886;-79
2022/09/17 10:10:59;;;;;;;2.05;1.58;;;;;;;;;;5112645;28;20648;-80
2022/09/17 10:13:27;;;;;;;1.70;1.60;;;;;;;;;;5112903;28;20242;-80
2022/09/17 10:15:54;;;;;;;2.15;2.05;;;;;;;;;;5112231;28;20207;-80
2022/09/17 10:18:24;;;;;;;1.42;1.35;;;;;;;;;;5104836;28;20281;-80
2022/09/17 10:20:52;;;;;;;1.95;1.67;;;;;;;;;;5106717;28;20632;-79
2022/09/17 10:23:19;;;;;;;1.88;1.38;;;;;;;;;;5113209;28;20195;-79
2022/09/17 10:25:46;;;;;;;1.75;1.48;;;;;;;;;;5113683;28;20213;-80
2022/09/17 10:28:32;;;;;;;2.42;1.60;;;;;;;;;;5113094;28;20222;-80
2022/09/17 10:31:02;;;;;;;2.03;1.75;;;;;;;;;;5105953;28;20221;-79
2022/09/17 10:33:31;;;;;;;2.30;2.10;;;;;;;;;;5104995;28;20758;-80
2022/09/17 10:36:03;;;;;;;1.98;1.75;;;;;;;;;;5095742;28;20701;-79
2022/09/17 10:38:35;;;;;;;1.75;1.65;;;;;;;;;;5106820;28;20286;-80
2022/09/17 10:41:14;;;;;;;2.30;2.20;;;;;;;;;;5106245;28;20208;-81
2022/09/17 10:43:41;;;;;;;2.00;1.90;;;;;;;;;;5102148;28;20203;-79
2022/09/17 10:46:10;;;;;;;2.13;1.88;;;;;;;;;;5113536;28;20199;-81
2022/09/17 10:48:43;;;;;;;1.92;1.80;;;;;;;;;;5112575;28;20685;-80
2022/09/17 10:51:10;;;;;;;1.55;1.42;;;;;;;;;;5113612;28;20200;-79
2022/09/17 10:53:58;;;;;;;2.47;2.38;;;;;;;;;;5112985;28;20692;-81
2022/09/17 10:56:29;;;;;;;1.92;1.83;;;;;;;;;;5113207;28;20207;-79
2022/09/17 10:59:00;;;;;;;1.85;1.75;;;;;;;;;;5103511;28;20286;-81
2022/09/17 11:01:35;;;;;;;1.77;1.67;;;;;;;;;;5112304;27;20279;-80
2022/09/17 11:04:15;;;;;;;2.92;2.72;;;;;;;;;;5112604;28;20252;-81
2022/09/17 11:07:20;;;;;;;4.85;2.25;;;;;;;;;;5112517;28;20627;-81
2022/09/17 11:09:53;;;;;;;1.67;1.58;;;;;;;;;;5089684;28;20199;-80
2022/09/17 11:12:31;;;;;;;3.08;1.63;;;;;;;;;;5112571;28;20610;-80
2022/09/17 11:15:03;;;;;;;3.67;2.50;;;;;;;;;;5112178;28;20203;-80
2022/09/17 11:17:48;;;;;;;1.88;1.77;;;;;;;;;;5109473;28;20276;-81
2022/09/17 11:20:24;;;;;;;3.38;3.15;;;;;;;;;;5109791;28;20195;-82
2022/09/17 11:22:58;;;;;;;3.22;3.03;;;;;;;;;;5106338;28;20192;-83
2022/09/17 11:25:36;;;;;;;1.75;1.63;;;;;;;;;;5105989;28;20218;-87
2022/09/17 11:28:44;;;;;;;1.85;1.75;;;;;;;;;;5105969;28;20764;-86
2022/09/17 11:31:22;;;;;;;5.03;3.65;;;;;;;;;;5100943;28;20710;-85
2022/09/17 11:34:00;;;;;;;5.38;4.88;;;;;;;;;;5103148;28;20196;-83
2022/09/17 11:36:33;;;;;;;3.00;1.50;;;;;;;;;;5109279;28;20666;-85
2022/09/17 11:39:09;;;;;;;1.38;1.27;;;;;;;;;;5107876;28;20191;-85
2022/09/17 11:41:39;;;;;;;1.75;1.65;;;;;;;;;;5104408;28;20200;-85
2022/09/17 11:44:10;;;;;;;1.38;1.30;;;;;;;;;;5109835;28;20199;-85
2022/09/17 11:46:41;;;;;;;1.48;1.15;;;;;;;;;;5097554;28;21045;-85
2022/09/17 11:49:13;;;;;;;1.23;1.23;;;;;;;;;;5100657;28;20215;-85
2022/09/17 11:51:45;;;;;;;2.20;1.42;;;;;;;;;;5105674;28;20196;-84
2022/09/17 11:54:19;;;;;;;4.13;2.30;;;;;;;;;;5097276;28;20203;-86
2022/09/17 11:56:49;;;;;;;2.20;1.70;;;;;;;;;;5101263;28;20690;-86
2022/09/17 11:59:20;;;;;;;1.10;1.03;;;;;;;;;;5107577;28;20212;-83
2022/09/17 12:01:51;;;;;;;1.67;1.57;;;;;;;;;;5103072;28;20748;-82
2022/09/17 12:04:30;;;;;;;1.77;1.50;;;;;;;;;;5103643;28;20199;-80
2022/09/17 12:07:02;;;;;;;1.33;0.80;;;;;;;;;;5099990;28;20198;-83
2022/09/17 12:09:38;;;;;;;1.83;0.90;;;;;;;;;;5102976;28;20235;-88
2022/09/17 12:12:07;;;;;;;0.70;0.70;;;;;;;;;;5103008;28;20210;-84
2022/09/17 12:14:43;;;;;;;0.57;0.57;;;;;;;;;;5111161;28;20727;-84
2022/09/17 12:17:14;;;;;;;0.80;0.80;;;;;;;;;;5111868;28;20233;-88
2022/09/17 12:19:45;;;;;;;0.40;0.40;;;;;;;;;;5107518;27;20204;-86
2022/09/17 12:22:18;;;;;;;1.07;0.80;;;;;;;;;;5102393;28;20674;-87
2022/09/17 12:24:45;;;;;;;0.63;0.63;;;;;;;;;;5111084;28;20203;-89
2022/09/17 12:27:23;;;;;;;1.53;0.77;;;;;;;;;;5094358;28;20207;-87
2022/09/17 12:30:13;;;;;;;1.23;1.00;;;;;;;;;;5111466;28;20223;-85
2022/09/17 12:33:01;;;;;;;0.60;0.60;;;;;;;;;;5111746;28;20291;-85
2022/09/17 12:35:50;;;;;;;0.60;0.60;;;;;;;;;;5111582;28;20210;-84
2022/09/17 12:38:40;;;;;;;1.10;0.97;;;;;;;;;;5110762;28;20210;-84
2022/09/17 12:41:11;;;;;;;0.40;0.40;;;;;;;;;;5111314;28;20210;-83
2022/09/17 12:43:57;;;;;;;0.53;0.53;;;;;;;;;;5110939;28;20588;-83
2022/09/17 12:46:46;;;;;;;0.53;0.53;;;;;;;;;;5111256;28;20211;-82
2022/09/17 12:49:29;;;;;;;0.77;0.77;;;;;;;;;;5099629;28;20729;-81
2022/09/17 12:51:58;;;;;;;0.30;0.30;;;;;;;;;;5110908;28;20196;-82
2022/09/17 12:54:50;;;;;;;0.20;0.20;;;;;;;;;;5110712;28;20210;-80
2022/09/17 12:57:25;;;;;;;0.20;0.20;;;;;;;;;;5111224;28;20196;-83
2022/09/17 12:59:57;;;;;;;0.20;0.20;;;;;;;;;;5096575;28;20281;-81
2022/09/17 13:02:27;;;;;;;0.20;0.20;;;;;;;;;;5111309;28;20199;-81
2022/09/17 13:05:27;;;;;;;0.30;0.20;;;;;;;;;;5110739;28;20696;-80
2022/09/17 13:08:13;;;;;;;0.30;0.30;;;;;;;;;;5111006;28;20261;-81
2022/09/17 13:11:12;;;;;;;0.13;0.13;;;;;;;;;;5103548;28;20204;-81
2022/09/17 13:13:46;;;;;;;0.10;0.10;;;;;;;;;;5087130;28;20210;-81
2022/09/17 13:16:17;;;;;;;0.20;0.20;;;;;;;;;;5110904;28;20207;-82
2022/09/17 13:18:48;;;;;;;0.20;0.20;;;;;;;;;;5111773;28;20203;-82
2022/09/17 13:21:22;;;;;;;0.37;0.37;;;;;;;;;;5115536;28;20591;-82
2022/09/17 13:23:52;;;;;;;2.03;0.63;;;;;;;;;;5114542;28;20286;-81
2022/09/17 13:26:34;;;;;;;0.37;0.37;;;;;;;;;;5115075;28;20206;-81
2022/09/17 13:29:03;;;;;;;0.30;0.30;;;;;;;;;;5114589;28;20219;-82
2022/09/17 13:31:47;;;;;;;0.23;0.23;;;;;;;;;;5114850;28;20199;-81
2022/09/17 13:34:28;;;;;;;0.10;0.10;;;;;;;;;;5115259;28;20588;-81
2022/09/17 13:36:55;;;;;;;0.50;0.50;;;;;;;;;;5114833;28;20206;-81
2022/09/17 13:39:39;;;;;;;0.83;0.40;;;;;;;;;;5114025;28;20199;-81
2022/09/17 13:42:13;;;;;;;0.80;0.80;;;;;;;;;;5114282;28;20294;-81
2022/09/17 13:44:42;;;;;;;0.40;0.40;;;;;;;;;;5114430;28;20584;-81
2022/09/17 13:47:14;;;;;;;0.30;0.30;;;;;;;;;;5114655;28;20281;-81
2022/09/17 13:49:48;;;;;;;0.73;0.73;;;;;;;;;;5114481;28;20219;-81
2022/09/17 13:52:15;;;;;;;0.40;0.40;;;;;;;;;;5114404;27;20214;-81
2022/09/17 13:54:42;;;;;;;0.40;0.40;;;;;;;;;;5113788;28;20196;-82
2022/09/17 13:57:15;;;;;;;0.37;0.37;;;;;;;;;;5114284;28;20206;-82
2022/09/17 13:59:56;;;;;;;1.50;0.37;;;;;;;;;;5099698;28;20228;-81
2022/09/17 14:02:29;;;;;;;0.50;0.50;;;;;;;;;;5112352;28;20191;-82
2022/09/17 14:04:56;;;;;;;0.70;0.70;;;;;;;;;;5114432;28;20211;-81
2022/09/17 14:07:34;;;;;;;0.50;0.50;;;;;;;;;;5112714;28;20203;-82
2022/09/17 14:10:01;;;;;;;0.40;0.40;;;;;;;;;;5114277;28;20231;-81
2022/09/17 14:12:52;;;;;;;0.90;0.90;;;;;;;;;;5113745;28;20210;-82
2022/09/17 14:15:54;;;;;;;0.30;0.30;;;;;;;;;;5113992;28;20204;-81
2022/09/17 14:18:46;;;;;;;1.53;0.70;;;;;;;;;;5113691;28;20227;-81
2022/09/17 14:21:20;;;;;;;0.40;0.40;;;;;;;;;;5101483;28;20195;-82
2022/09/17 14:23:52;;;;;;;0.77;0.77;;;;;;;;;;5113510;28;20207;-82
2022/09/17 14:26:29;;;;;;;0.60;0.60;;;;;;;;;;5114111;28;20226;-82
2022/09/17 14:29:02;;;;;;;0.40;0.40;;;;;;;;;;5112953;28;20593;-81
2022/09/17 14:31:31;;;;;;;0.77;0.77;;;;;;;;;;5113904;28;20203;-81
2022/09/17 14:33:58;;;;;;;0.33;0.33;;;;;;;;;;5112923;27;20253;-83
2022/09/17 14:36:25;;;;;;;0.77;0.50;;;;;;;;;;5113882;28;20706;-81
2022/09/17 14:38:55;;;;;;;0.57;0.40;;;;;;;;;;5113825;28;20218;-82
2022/09/17 14:41:24;;;;;;;0.40;0.40;;;;;;;;;;5113449;28;20277;-83
2022/09/17 14:43:53;;;;;;;0.30;0.30;;;;;;;;;;5113407;28;20208;-82
2022/09/17 14:46:24;;;;;;;0.60;0.60;;;;;;;;;;5113382;28;20214;-82
2022/09/17 14:48:51;;;;;;;0.53;0.53;;;;;;;;;;5113165;28;20658;-81
2022/09/17 14:51:27;;;;;;;0.40;0.40;;;;;;;;;;5113600;28;20651;-82
2022/09/17 14:54:16;;;;;;;0.57;0.57;;;;;;;;;;5113261;28;20226;-82
2022/09/17 14:56:48;;;;;;;0.40;0.40;;;;;;;;;;5112819;28;20757;-82
2022/09/17 14:59:21;;;;;;;0.30;0.30;;;;;;;;;;5102205;28;20200;-81
2022/09/17 15:01:50;;;;;;;0.80;0.50;;;;;;;;;;5111263;28;20195;-81
2022/09/17 15:04:24;;;;;;;0.30;0.30;;;;;;;;;;5113187;28;20635;-81
2022/09/17 15:06:51;;;;;;;0.30;0.30;;;;;;;;;;5112982;28;20194;-82
2022/09/17 15:09:22;;;;;;;0.40;0.40;;;;;;;;;;5112915;27;20223;-81